createdAt,value
2019-02-12T00:01:11.628Z,91.9
2019-02-12T00:02:23.976Z,92.2
2019-02-12T00:03:36.097Z,92.2
2019-02-12T00:04:48.274Z,92
2019-02-12T00:06:00.613Z,92.3
2019-02-12T00:07:12.704Z,92.4
2019-02-12T00:08:24.880Z,92.3
2019-02-12T00:09:36.986Z,92.4
2019-02-12T00:10:49.288Z,92
2019-02-12T00:12:01.459Z,92
2019-02-12T00:13:13.597Z,92.4
2019-02-12T00:14:25.934Z,92
2019-02-12T00:15:37.963Z,92.2
2019-02-12T00:16:51.005Z,92.3
2019-02-12T00:18:02.495Z,92.3
2019-02-12T00:19:14.649Z,92.2
2019-02-12T00:20:26.750Z,92
2019-02-12T00:21:38.950Z,92.2
2019-02-12T00:22:51.139Z,92.6
2019-02-12T00:24:03.344Z,92.5
2019-02-12T00:25:15.723Z,92.2
2019-02-12T00:26:30.719Z,92.3
2019-02-12T00:27:39.994Z,92.6
2019-02-12T00:28:52.213Z,92.5
2019-02-12T00:30:04.431Z,92.6
2019-02-12T00:31:16.607Z,92.5
2019-02-12T00:32:28.770Z,92.6
2019-02-12T00:33:40.998Z,92.6
2019-02-12T00:34:53.102Z,92.6
2019-02-12T00:36:05.379Z,92.3
2019-02-12T00:37:20.799Z,92.4
2019-02-12T00:38:29.688Z,92.4
2019-02-12T00:39:41.977Z,92.4
2019-02-12T00:40:54.085Z,92.3
2019-02-12T00:42:06.322Z,92.3
2019-02-12T00:43:18.580Z,92.2
2019-02-12T00:44:30.668Z,92.2
2019-02-12T00:45:42.854Z,92.2
2019-02-12T00:46:55.054Z,91.7
2019-02-12T00:48:07.251Z,91.5
2019-02-12T00:49:19.658Z,91.7
2019-02-12T00:50:31.633Z,92.5
2019-02-12T00:51:43.887Z,92.2
2019-02-12T00:52:56.115Z,92.2
2019-02-12T00:54:08.237Z,92.3
2019-02-12T00:55:20.573Z,92.3
2019-02-12T00:56:32.703Z,92.3
2019-02-12T00:57:44.817Z,92.3
2019-02-12T00:58:57.142Z,92.3
2019-02-12T01:00:09.196Z,91.7
2019-02-12T01:01:21.399Z,91.3
2019-02-12T01:02:33.589Z,91.4
2019-02-12T01:03:45.808Z,91.6
2019-02-12T01:04:57.988Z,91.8
2019-02-12T01:06:10.292Z,91.6
2019-02-12T01:07:22.467Z,91.8
2019-02-12T01:08:34.572Z,91.7
2019-02-12T01:09:46.766Z,91.5
2019-02-12T01:10:58.959Z,91.6
2019-02-12T01:12:11.183Z,91.9
2019-02-12T01:13:23.348Z,91.9
2019-02-12T01:14:35.557Z,91.8
2019-02-12T01:15:47.780Z,91.8
2019-02-12T01:16:59.941Z,92
2019-02-12T01:18:12.138Z,92
2019-02-12T01:19:24.585Z,92.3
2019-02-12T01:20:36.539Z,92
2019-02-12T01:21:48.722Z,91.9
2019-02-12T01:23:00.995Z,92.2
2019-02-12T01:24:13.113Z,92.2
2019-02-12T01:25:25.350Z,91.9
2019-02-12T01:26:37.527Z,92.3
2019-02-12T01:27:49.776Z,92.2
2019-02-12T01:29:01.894Z,92
2019-02-12T01:30:14.084Z,91.9
2019-02-12T01:31:26.456Z,92.2
2019-02-12T01:32:38.598Z,92
2019-02-12T01:33:50.695Z,92.3
2019-02-12T01:35:02.956Z,92.7
2019-02-12T01:36:15.101Z,92.6
2019-02-12T01:37:27.265Z,92.7
2019-02-12T01:38:39.456Z,92.6
2019-02-12T01:39:51.923Z,92.6
2019-02-12T01:41:03.882Z,92.6
2019-02-12T01:42:16.047Z,92.5
2019-02-12T01:43:28.423Z,92.6
2019-02-12T01:44:40.449Z,92.7
2019-02-12T01:45:52.637Z,92.9
2019-02-12T01:47:04.824Z,92.8
2019-02-12T01:48:17.027Z,92.9
2019-02-12T01:49:29.306Z,92.9
2019-02-12T01:50:41.441Z,92.7
2019-02-12T01:51:53.615Z,92.4
2019-02-12T01:53:05.825Z,92.7
2019-02-12T01:54:18.070Z,92.9
2019-02-12T01:55:30.292Z,92.8
2019-02-12T01:56:42.384Z,93.1
2019-02-12T01:57:54.587Z,93
2019-02-12T01:59:06.911Z,92.9
2019-02-12T02:00:18.974Z,92.8
2019-02-12T02:01:31.325Z,92.8
2019-02-12T02:02:43.639Z,92.6
2019-02-12T02:03:55.668Z,92.9
2019-02-12T02:05:07.836Z,93.1
2019-02-12T02:06:19.956Z,93.1
2019-02-12T02:07:32.400Z,93.2
2019-02-12T02:08:44.549Z,93.1
2019-02-12T02:09:56.547Z,93.2
2019-02-12T02:11:08.764Z,93.1
2019-02-12T02:12:21.105Z,93
2019-02-12T02:13:33.227Z,93.2
2019-02-12T02:14:45.319Z,93.5
2019-02-12T02:15:57.559Z,93.2
2019-02-12T02:17:09.731Z,93.2
2019-02-12T02:18:21.907Z,93.1
2019-02-12T02:19:34.270Z,93
2019-02-12T02:20:46.359Z,93.1
2019-02-12T02:21:58.592Z,93.1
2019-02-12T02:23:10.757Z,93.2
2019-02-12T02:24:23.058Z,93
2019-02-12T02:25:35.082Z,93
2019-02-12T02:26:47.301Z,93.1
2019-02-12T02:27:59.533Z,93
2019-02-12T02:29:11.799Z,93.3
2019-02-12T02:30:23.966Z,93.2
2019-02-12T02:31:36.194Z,93.1
2019-02-12T02:32:48.346Z,93.5
2019-02-12T02:34:00.524Z,93.5
2019-02-12T02:35:12.675Z,93.7
2019-02-12T02:36:24.837Z,93.7
2019-02-12T02:37:37.107Z,93.8
2019-02-12T02:38:49.241Z,93.7
2019-02-12T02:40:01.468Z,93.5
2019-02-12T02:41:13.619Z,93.3
2019-02-12T02:42:25.847Z,93.3
2019-02-12T02:43:38.117Z,93.3
2019-02-12T02:44:50.231Z,93.3
2019-02-12T02:46:02.537Z,93.5
2019-02-12T02:47:14.606Z,93.8
2019-02-12T02:48:26.850Z,93.8
2019-02-12T02:49:39.073Z,93.7
2019-02-12T02:50:51.203Z,93.7
2019-02-12T02:52:03.471Z,93.5
2019-02-12T02:53:15.651Z,93.3
2019-02-12T02:54:27.782Z,93.5
2019-02-12T02:55:40.088Z,93.9
2019-02-12T02:56:52.183Z,93.9
2019-02-12T02:58:04.364Z,93.8
2019-02-12T02:59:16.572Z,93.8
2019-02-12T03:00:28.755Z,93.8
2019-02-12T03:01:40.955Z,93.7
2019-02-12T03:02:53.220Z,93.9
2019-02-12T03:04:05.342Z,93.8
2019-02-12T03:05:17.967Z,93.8
2019-02-12T03:06:29.857Z,93.8
2019-02-12T03:07:42.029Z,93.7
2019-02-12T03:08:54.129Z,93.8
2019-02-12T03:10:06.330Z,94
2019-02-12T03:11:18.545Z,94
2019-02-12T03:12:30.771Z,94
2019-02-12T03:13:42.920Z,94.1
2019-02-12T03:14:55.185Z,94
2019-02-12T03:16:07.323Z,94
2019-02-12T03:17:19.595Z,94
2019-02-12T03:18:31.768Z,94.2
2019-02-12T03:19:43.999Z,94.3
2019-02-12T03:20:56.168Z,94.3
2019-02-12T03:22:08.284Z,94.4
2019-02-12T03:23:20.480Z,94.4
2019-02-12T03:24:32.695Z,94.4
2019-02-12T03:25:44.960Z,94.4
2019-02-12T03:26:57.096Z,94.4
2019-02-12T03:28:09.281Z,94.3
2019-02-12T03:29:21.527Z,94.4
2019-02-12T03:30:33.751Z,94.3
2019-02-12T03:31:45.965Z,94.3
2019-02-12T03:32:58.084Z,94.4
2019-02-12T03:34:10.330Z,94.3
2019-02-12T03:35:22.651Z,94.3
2019-02-12T03:36:34.683Z,94.4
2019-02-12T03:37:46.835Z,94.3
2019-02-12T03:38:59.082Z,94.4
2019-02-12T03:40:11.254Z,94.5
2019-02-12T03:41:23.427Z,94.5
2019-02-12T03:42:35.690Z,94.6
2019-02-12T03:43:47.923Z,94.5
2019-02-12T03:45:00.105Z,94.6
2019-02-12T03:46:12.247Z,94.7
2019-02-12T03:47:24.429Z,94.6
2019-02-12T03:48:36.605Z,94.7
2019-02-12T03:49:48.791Z,94.7
2019-02-12T03:51:00.992Z,94.7
2019-02-12T03:52:13.182Z,94.7
2019-02-12T03:53:25.494Z,94.7
2019-02-12T03:54:37.597Z,94.6
2019-02-12T03:55:49.879Z,94.6
2019-02-12T03:57:02.065Z,94.6
2019-02-12T03:58:14.174Z,94.7
2019-02-12T03:59:26.423Z,94.7
2019-02-12T04:00:38.586Z,94.8
2019-02-12T04:01:50.755Z,94.8
2019-02-12T04:03:02.942Z,94.8
2019-02-12T04:04:15.194Z,94.8
2019-02-12T04:05:27.430Z,94.7
2019-02-12T04:06:39.534Z,94.8
2019-02-12T04:07:51.945Z,94.8
2019-02-12T04:09:03.935Z,94.9
2019-02-12T04:10:16.284Z,95
2019-02-12T04:11:28.326Z,95.1
2019-02-12T04:12:40.513Z,95
2019-02-12T04:13:52.906Z,94.9
2019-02-12T04:15:04.899Z,94.8
2019-02-12T04:16:17.292Z,94.9
2019-02-12T04:17:29.299Z,95
2019-02-12T04:18:41.503Z,94.9
2019-02-12T04:19:53.854Z,94.8
2019-02-12T04:21:05.903Z,94.9
2019-02-12T04:22:18.156Z,94.9
2019-02-12T04:23:30.317Z,94.9
2019-02-12T04:24:42.483Z,95.1
2019-02-12T04:25:54.841Z,95.1
2019-02-12T04:27:06.859Z,95.2
2019-02-12T04:28:19.148Z,95.1
2019-02-12T04:29:31.333Z,95.2
2019-02-12T04:30:43.452Z,95.3
2019-02-12T04:31:55.825Z,95.3
2019-02-12T04:33:07.851Z,95.2
2019-02-12T04:34:20.121Z,95.2
2019-02-12T04:35:32.267Z,95.2
2019-02-12T04:36:44.486Z,95.2
2019-02-12T04:37:56.715Z,95.2
2019-02-12T04:39:08.828Z,95.2
2019-02-12T04:40:21.031Z,95.2
2019-02-12T04:41:33.323Z,95.1
2019-02-12T04:42:45.516Z,95.2
2019-02-12T04:43:57.709Z,95.3
2019-02-12T04:45:09.862Z,95.2
2019-02-12T04:46:22.037Z,95.1
2019-02-12T04:47:34.245Z,95.2
2019-02-12T04:48:46.481Z,95.2
2019-02-12T04:49:58.620Z,95.3
2019-02-12T04:51:10.783Z,95.2
2019-02-12T04:52:23.069Z,95.1
2019-02-12T04:53:35.180Z,95.2
2019-02-12T04:54:47.533Z,95.3
2019-02-12T04:55:59.670Z,95.5
2019-02-12T04:57:11.916Z,95.5
2019-02-12T04:58:24.038Z,95.5
2019-02-12T04:59:36.263Z,95.5
2019-02-12T05:00:48.773Z,95.5
2019-02-12T05:02:00.563Z,95.3
2019-02-12T05:03:12.766Z,95.3
2019-02-12T05:04:25.027Z,95.3
2019-02-12T05:05:37.224Z,95.2
2019-02-12T05:06:49.328Z,95.3
2019-02-12T05:08:01.623Z,95.3
2019-02-12T05:09:13.920Z,95
2019-02-12T05:10:25.935Z,94.9
2019-02-12T05:11:38.303Z,95
2019-02-12T05:12:50.410Z,95.1
2019-02-12T05:14:02.605Z,95.1
2019-02-12T05:15:14.725Z,95.1
2019-02-12T05:16:26.931Z,95.1
2019-02-12T05:17:39.097Z,95
2019-02-12T05:18:51.328Z,95.1
2019-02-12T05:20:03.600Z,95.1
2019-02-12T05:21:15.690Z,95.2
2019-02-12T05:22:31.969Z,95.3
2019-02-12T05:23:43.750Z,95.3
2019-02-12T05:24:52.276Z,95.3
2019-02-12T05:26:04.590Z,95.5
2019-02-12T05:27:16.765Z,95.5
2019-02-12T05:28:28.874Z,95.5
2019-02-12T05:29:41.337Z,95.5
2019-02-12T05:30:53.273Z,95.7
2019-02-12T05:32:05.618Z,95.5
2019-02-12T05:33:17.642Z,95.8
2019-02-12T05:34:29.844Z,95.8
2019-02-12T05:35:42.031Z,95.7
2019-02-12T05:36:54.227Z,95.7
2019-02-12T05:38:06.456Z,95.7
2019-02-12T05:39:18.618Z,95.7
2019-02-12T05:40:30.822Z,95.7
2019-02-12T05:41:43.138Z,95.7
2019-02-12T05:42:55.207Z,95.8
2019-02-12T05:44:07.582Z,95.7
2019-02-12T05:45:19.801Z,95.8
2019-02-12T05:46:35.552Z,95.8
2019-02-12T05:47:45.893Z,95.8
2019-02-12T05:48:56.189Z,95.8
2019-02-12T05:50:08.398Z,95.8
2019-02-12T05:51:20.593Z,95.8
2019-02-12T05:52:32.933Z,95.9
2019-02-12T05:53:45.979Z,95.9
2019-02-12T05:54:57.169Z,96
2019-02-12T05:56:09.464Z,96
2019-02-12T05:57:21.645Z,96
2019-02-12T05:58:33.858Z,96.1
2019-02-12T05:59:46.113Z,96
2019-02-12T06:00:58.145Z,96
2019-02-12T06:02:10.454Z,96.1
2019-02-12T06:03:22.661Z,96.1
2019-02-12T06:04:34.823Z,96.1
2019-02-12T06:05:46.938Z,96.1
2019-02-12T06:06:59.381Z,96.1
2019-02-12T06:08:11.346Z,96
2019-02-12T06:09:23.589Z,96
2019-02-12T06:10:35.719Z,96
2019-02-12T06:11:47.936Z,96
2019-02-12T06:13:00.100Z,95.9
2019-02-12T06:14:12.314Z,95.9
2019-02-12T06:15:24.491Z,95.8
2019-02-12T06:16:36.702Z,95.8
2019-02-12T06:17:48.885Z,95.9
2019-02-12T06:19:01.087Z,96
2019-02-12T06:20:13.444Z,95.9
2019-02-12T06:21:25.471Z,95.9
2019-02-12T06:22:37.688Z,95.9
2019-02-12T06:23:49.881Z,95.9
2019-02-12T06:25:02.106Z,95.9
2019-02-12T06:26:14.339Z,95.9
2019-02-12T06:27:26.535Z,95.9
2019-02-12T06:28:38.684Z,96
2019-02-12T06:29:51.649Z,95.9
2019-02-12T06:31:03.168Z,95.8
2019-02-12T06:32:15.323Z,95.7
2019-02-12T06:33:27.533Z,95.7
2019-02-12T06:34:39.626Z,95.8
2019-02-12T06:35:51.928Z,95.7
2019-02-12T06:37:04.018Z,95.7
2019-02-12T06:38:16.268Z,95.8
2019-02-12T06:39:28.415Z,95.9
2019-02-12T06:40:40.783Z,95.9
2019-02-12T06:41:52.965Z,95.9
2019-02-12T06:43:05.002Z,95.9
2019-02-12T06:44:17.369Z,95.9
2019-02-12T06:45:29.461Z,95.8
2019-02-12T06:46:41.653Z,95.9
2019-02-12T06:47:53.944Z,95.9
2019-02-12T06:49:05.984Z,95.9
2019-02-12T06:50:18.261Z,95.9
2019-02-12T06:51:30.429Z,95.9
2019-02-12T06:52:42.737Z,95.8
2019-02-12T06:53:54.754Z,95.9
2019-02-12T06:55:07.105Z,95.9
2019-02-12T06:56:19.245Z,95.9
2019-02-12T06:57:31.474Z,95.9
2019-02-12T06:58:43.537Z,95.8
2019-02-12T06:59:55.747Z,95.8
2019-02-12T07:01:08.019Z,95.9
2019-02-12T07:02:20.134Z,96
2019-02-12T07:03:32.416Z,96
2019-02-12T07:04:44.783Z,95.9
2019-02-12T07:05:56.816Z,95.9
2019-02-12T07:07:08.908Z,95.9
2019-02-12T07:08:21.414Z,95.9
2019-02-12T07:09:33.472Z,95.8
2019-02-12T07:10:45.780Z,95.8
2019-02-12T07:11:57.715Z,95.8
2019-02-12T07:13:09.974Z,95.8
2019-02-12T07:14:22.120Z,95.7
2019-02-12T07:15:34.354Z,95.7
2019-02-12T07:16:48.808Z,95.7
2019-02-12T07:17:58.708Z,95.5
2019-02-12T07:19:10.864Z,95.5
2019-02-12T07:20:23.253Z,95.5
2019-02-12T07:21:35.263Z,95.5
2019-02-12T07:22:47.468Z,95.5
2019-02-12T07:23:59.785Z,95.5
2019-02-12T07:25:11.850Z,95.5
2019-02-12T07:26:24.087Z,95.5
2019-02-12T07:27:36.324Z,95.3
2019-02-12T07:28:48.431Z,95.3
2019-02-12T07:30:00.626Z,95.3
2019-02-12T07:31:12.925Z,95.3
2019-02-12T07:32:25.129Z,95.3
2019-02-12T07:33:37.353Z,95.2
2019-02-12T07:34:49.461Z,95.1
2019-02-12T07:36:01.835Z,95
2019-02-12T07:37:13.879Z,94.9
2019-02-12T07:38:26.248Z,95
2019-02-12T07:39:38.192Z,94.9
2019-02-12T07:40:50.694Z,94.8
2019-02-12T07:42:02.578Z,94.5
2019-02-12T07:43:14.935Z,94.2
2019-02-12T07:44:27.079Z,94.1
2019-02-12T07:45:39.226Z,93.8
2019-02-12T07:46:51.375Z,93.7
2019-02-12T07:48:03.576Z,93.2
2019-02-12T07:49:15.822Z,92.9
2019-02-12T07:50:27.973Z,92.8
2019-02-12T07:51:40.193Z,93
2019-02-12T07:52:52.439Z,93.2
2019-02-12T07:54:04.574Z,93.2
2019-02-12T07:55:16.755Z,93.3
2019-02-12T07:56:29.033Z,93.3
2019-02-12T07:57:41.158Z,93.3
2019-02-12T07:58:53.341Z,93.1
2019-02-12T08:00:05.618Z,93
2019-02-12T08:01:17.735Z,92.9
2019-02-12T08:02:29.928Z,92.9
2019-02-12T08:03:42.105Z,92.8
2019-02-12T08:04:54.297Z,92.4
2019-02-12T08:06:06.502Z,92.2
2019-02-12T08:07:18.682Z,92.1
2019-02-12T08:08:30.969Z,92.2
2019-02-12T08:09:43.551Z,92.4
2019-02-12T08:10:55.409Z,92.4
2019-02-12T08:12:07.450Z,92.3
2019-02-12T08:13:19.677Z,92.5
2019-02-12T08:14:31.939Z,92.4
2019-02-12T08:15:44.110Z,92.2
2019-02-12T08:16:56.237Z,92.3
2019-02-12T08:18:08.426Z,92.3
2019-02-12T08:19:20.618Z,92.2
2019-02-12T08:20:32.978Z,92.2
2019-02-12T08:21:45.107Z,92.1
2019-02-12T08:22:57.289Z,92.4
2019-02-12T08:24:09.545Z,92.6
2019-02-12T08:25:21.605Z,92.5
2019-02-12T08:26:33.790Z,92.3
2019-02-12T08:27:46.054Z,92.3
2019-02-12T08:28:58.193Z,92.7
2019-02-12T08:30:10.373Z,92.2
2019-02-12T08:31:22.560Z,92
2019-02-12T08:32:34.847Z,91.7
2019-02-12T08:33:47.042Z,91.7
2019-02-12T08:34:59.138Z,91.8
2019-02-12T08:36:11.418Z,92
2019-02-12T08:37:23.548Z,92
2019-02-12T08:38:35.772Z,92
2019-02-12T08:39:48.017Z,91.7
2019-02-12T08:41:00.218Z,91.9
2019-02-12T08:42:12.448Z,92
2019-02-12T08:43:24.578Z,91.9
2019-02-12T08:44:36.876Z,91.8
2019-02-12T08:45:48.886Z,91.8
2019-02-12T08:47:01.086Z,91.5
2019-02-12T08:48:13.349Z,91
2019-02-12T08:49:25.495Z,91
2019-02-12T08:50:37.754Z,91.1
2019-02-12T08:51:49.850Z,91.4
2019-02-12T08:53:02.151Z,91.4
2019-02-12T08:54:14.357Z,91.6
2019-02-12T08:55:26.442Z,91.5
2019-02-12T08:56:38.799Z,91.8
2019-02-12T08:57:50.833Z,91.8
2019-02-12T08:59:03.023Z,92
2019-02-12T09:00:15.214Z,92
2019-02-12T09:01:27.410Z,92
2019-02-12T09:02:39.605Z,92
2019-02-12T09:03:51.794Z,92.2
2019-02-12T09:05:03.991Z,92.4
2019-02-12T09:06:16.416Z,92.3
2019-02-12T09:07:28.485Z,92.4
2019-02-12T09:08:40.661Z,92.5
2019-02-12T09:09:52.765Z,92.4
2019-02-12T09:11:04.983Z,92.4
2019-02-12T09:12:17.239Z,92.3
2019-02-12T09:13:29.346Z,92.2
2019-02-12T09:14:44.020Z,91.9
2019-02-12T09:15:54.651Z,91.9
2019-02-12T09:17:05.925Z,92.1
2019-02-12T09:18:18.130Z,92
2019-02-12T09:19:30.334Z,91.9
2019-02-12T09:20:42.618Z,91.9
2019-02-12T09:21:54.703Z,91.7
2019-02-12T09:23:07.040Z,91.6
2019-02-12T09:24:19.120Z,91.7
2019-02-12T09:25:31.504Z,91.7
2019-02-12T09:26:43.520Z,91.6
2019-02-12T09:27:55.671Z,91.5
2019-02-12T09:29:08.031Z,91.5
2019-02-12T09:30:20.075Z,91.6
2019-02-12T09:31:32.274Z,91.7
2019-02-12T09:32:44.566Z,91.6
2019-02-12T09:33:56.733Z,91.8
2019-02-12T09:35:08.837Z,92.1
2019-02-12T09:36:21.119Z,91.5
2019-02-12T09:37:33.297Z,91.5
2019-02-12T09:38:45.537Z,91.4
2019-02-12T09:39:57.615Z,91.5
2019-02-12T09:41:09.934Z,91.5
2019-02-12T09:42:22.076Z,91.6
2019-02-12T09:43:34.195Z,91.5
2019-02-12T09:44:46.484Z,91.5
2019-02-12T09:45:58.579Z,91.2
2019-02-12T09:47:10.877Z,91.2
2019-02-12T09:48:23.135Z,91
2019-02-12T09:49:35.172Z,91
2019-02-12T09:50:47.369Z,91
2019-02-12T09:51:59.550Z,91
2019-02-12T09:53:11.808Z,91
2019-02-12T09:54:23.947Z,90.6
2019-02-12T09:55:36.237Z,90.7
2019-02-12T09:56:48.459Z,90.7
2019-02-12T09:58:00.528Z,91
2019-02-12T09:59:12.817Z,90.8
2019-02-12T10:00:24.906Z,90.4
2019-02-12T10:01:38.840Z,90.6
2019-02-12T10:02:49.471Z,90.8
2019-02-12T10:04:01.556Z,90.4
2019-02-12T10:05:13.769Z,90.1
2019-02-12T10:06:25.947Z,89.9
2019-02-12T10:07:38.145Z,90.2
2019-02-12T10:08:50.485Z,89.1
2019-02-12T10:10:02.607Z,89.3
2019-02-12T10:11:14.672Z,89.4
2019-02-12T10:12:27.081Z,89
2019-02-12T10:13:39.117Z,88.9
2019-02-12T10:14:51.304Z,88.7
2019-02-12T10:16:03.529Z,88
2019-02-12T10:17:15.714Z,88
2019-02-12T10:18:28.271Z,87.4
2019-02-12T10:19:40.117Z,87.5
2019-02-12T10:20:52.382Z,87.3
2019-02-12T10:22:04.492Z,87.2
2019-02-12T10:23:16.664Z,87.1
2019-02-12T10:24:28.892Z,87.2
2019-02-12T10:25:40.985Z,87.3
2019-02-12T10:26:53.295Z,87.2
2019-02-12T10:28:05.475Z,86.5
2019-02-12T10:29:17.617Z,86.8
2019-02-12T10:30:29.765Z,87.1
2019-02-12T10:31:42.018Z,87.1
2019-02-12T10:32:54.397Z,86.8
2019-02-12T10:34:06.516Z,86.7
2019-02-12T10:35:18.525Z,86.3
2019-02-12T10:36:34.544Z,86.7
2019-02-12T10:37:44.727Z,86.5
2019-02-12T10:38:57.405Z,86.8
2019-02-12T10:40:07.291Z,87.4
2019-02-12T10:41:19.575Z,87.3
2019-02-12T10:42:31.686Z,86.6
2019-02-12T10:43:43.878Z,87.2
2019-02-12T10:44:56.099Z,86.3
2019-02-12T10:46:08.381Z,86.5
2019-02-12T10:47:20.465Z,86.3
2019-02-12T10:48:32.707Z,86.9
2019-02-12T10:49:44.864Z,86
2019-02-12T10:50:57.217Z,86.5
2019-02-12T10:52:09.235Z,85.6
2019-02-12T10:53:21.523Z,86.3
2019-02-12T10:54:33.641Z,86.7
2019-02-12T10:55:45.976Z,86.9
2019-02-12T10:56:58.148Z,87.3
2019-02-12T10:58:10.208Z,87.1
2019-02-12T10:59:22.540Z,86
2019-02-12T11:00:34.605Z,86.9
2019-02-12T11:01:46.857Z,85.6
2019-02-12T11:02:59.067Z,86.3
2019-02-12T11:04:11.242Z,86.2
2019-02-12T11:05:23.442Z,86.7
2019-02-12T11:06:35.568Z,86.7
2019-02-12T11:07:47.830Z,86.2
2019-02-12T11:09:00.046Z,86.5
2019-02-12T11:10:12.423Z,86.8
2019-02-12T11:11:24.336Z,86.7
2019-02-12T11:12:36.527Z,87.2
2019-02-12T11:13:48.719Z,87.1
2019-02-12T11:15:00.935Z,87.2
2019-02-12T11:16:13.160Z,86.8
2019-02-12T11:17:25.453Z,86.9
2019-02-12T11:18:37.496Z,87.2
2019-02-12T11:19:49.827Z,86.9
2019-02-12T11:21:02.068Z,87.3
2019-02-12T11:22:14.161Z,86.9
2019-02-12T11:23:26.358Z,86.8
2019-02-12T11:24:38.528Z,87.3
2019-02-12T11:25:50.711Z,87.5
2019-02-12T11:27:02.965Z,87.5
2019-02-12T11:28:15.051Z,87.5
2019-02-12T11:29:27.345Z,86.8
2019-02-12T11:30:39.451Z,87.1
2019-02-12T11:31:51.724Z,87.1
2019-02-12T11:33:03.994Z,87.1
2019-02-12T11:34:16.272Z,87.3
2019-02-12T11:35:28.225Z,87.5
2019-02-12T11:36:40.616Z,87.2
2019-02-12T11:37:52.591Z,86.8
2019-02-12T11:39:04.959Z,87.3
2019-02-12T11:40:17.046Z,87.7
2019-02-12T11:41:29.378Z,87.2
2019-02-12T11:42:41.504Z,87.3
2019-02-12T11:43:53.642Z,86.5
2019-02-12T11:45:05.867Z,87.3
2019-02-12T11:46:17.969Z,87.1
2019-02-12T11:47:30.149Z,86.3
2019-02-12T11:48:42.454Z,86.3
2019-02-12T11:49:54.612Z,86.3
2019-02-12T11:51:06.798Z,86.6
2019-02-12T11:52:18.912Z,86.7
2019-02-12T11:53:31.161Z,85.5
2019-02-12T11:54:43.329Z,85.8
2019-02-12T11:55:55.610Z,85.4
2019-02-12T11:57:07.882Z,86.4
2019-02-12T11:58:19.982Z,86.2
2019-02-12T11:59:32.161Z,86.9
2019-02-12T12:00:44.374Z,86.7
2019-02-12T12:01:56.479Z,86.6
2019-02-12T12:03:08.832Z,86.3
2019-02-12T12:04:20.852Z,86.7
2019-02-12T12:05:33.062Z,85.5
2019-02-12T12:06:45.287Z,86.4
2019-02-12T12:07:57.538Z,86.6
2019-02-12T12:09:09.746Z,86.3
2019-02-12T12:10:21.902Z,86.5
2019-02-12T12:11:34.052Z,85.8
2019-02-12T12:12:46.299Z,85.9
2019-02-12T12:14:03.149Z,86
2019-02-12T12:15:13.103Z,85.3
2019-02-12T12:16:22.865Z,85.7
2019-02-12T12:17:34.988Z,84.9
2019-02-12T12:18:47.264Z,84.9
2019-02-12T12:19:59.388Z,85.1
2019-02-12T12:21:11.701Z,86
2019-02-12T12:22:23.761Z,85.8
2019-02-12T12:23:36.062Z,83.9
2019-02-12T12:24:48.169Z,85.5
2019-02-12T12:26:00.502Z,85.6
2019-02-12T12:27:13.189Z,85.1
2019-02-12T12:28:24.757Z,84.5
2019-02-12T12:29:36.931Z,84.9
2019-02-12T12:30:49.148Z,85
2019-02-12T12:32:01.430Z,84.4
2019-02-12T12:33:13.505Z,86.2
2019-02-12T12:34:25.722Z,85.1
2019-02-12T12:35:37.928Z,85.1
2019-02-12T12:36:50.182Z,85.4
2019-02-12T12:38:02.310Z,84.5
2019-02-12T12:39:14.574Z,85.1
2019-02-12T12:40:26.759Z,85.7
2019-02-12T12:41:38.866Z,85.5
2019-02-12T12:42:51.174Z,84.4
2019-02-12T12:44:03.357Z,83.7
2019-02-12T12:45:15.547Z,85
2019-02-12T12:46:27.678Z,85
2019-02-12T12:47:39.847Z,84.8
2019-02-12T12:48:52.065Z,84.4
2019-02-12T12:50:04.301Z,84.4
2019-02-12T12:51:16.554Z,84.6
2019-02-12T12:52:28.652Z,84.3
2019-02-12T12:53:40.898Z,83.9
2019-02-12T12:54:53.084Z,83.5
2019-02-12T12:56:05.203Z,82.9
2019-02-12T12:57:17.519Z,84.3
2019-02-12T12:58:29.581Z,83.7
2019-02-12T12:59:42.037Z,82.1
2019-02-12T13:00:53.968Z,81.6
2019-02-12T13:02:06.233Z,83.7
2019-02-12T13:03:18.364Z,83.2
2019-02-12T13:04:30.541Z,83.3
2019-02-12T13:05:42.846Z,83
2019-02-12T13:06:55.038Z,83.3
2019-02-12T13:08:07.128Z,83.7
2019-02-12T13:09:19.449Z,83.4
2019-02-12T13:10:31.623Z,83.4
2019-02-12T13:11:43.708Z,82.8
2019-02-12T13:12:56.000Z,82.5
2019-02-12T13:14:08.227Z,82.4
2019-02-12T13:15:20.500Z,83
2019-02-12T13:16:32.544Z,82.3
2019-02-12T13:17:44.754Z,82.8
2019-02-12T13:18:56.871Z,82
2019-02-12T13:20:09.219Z,82.2
2019-02-12T13:21:21.312Z,82.1
2019-02-12T13:22:33.524Z,83.1
2019-02-12T13:23:45.646Z,80.5
2019-02-12T13:24:57.867Z,81.6
2019-02-12T13:26:10.055Z,81.6
2019-02-12T13:27:22.247Z,78.1
2019-02-12T13:28:34.501Z,80.6
2019-02-12T13:29:46.687Z,80
2019-02-12T13:30:58.809Z,81.6
2019-02-12T13:32:11.094Z,81.6
2019-02-12T13:33:23.303Z,81.3
2019-02-12T13:34:35.389Z,81.5
2019-02-12T13:35:47.729Z,81.6
2019-02-12T13:36:59.783Z,81.4
2019-02-12T13:38:12.018Z,80.4
2019-02-12T13:39:24.990Z,80.8
2019-02-12T13:40:36.355Z,81.2
2019-02-12T13:41:48.568Z,79.3
2019-02-12T13:43:00.736Z,80.4
2019-02-12T13:44:12.948Z,80.7
2019-02-12T13:45:25.304Z,79.3
2019-02-12T13:46:37.483Z,80.3
2019-02-12T13:47:49.540Z,79.3
2019-02-12T13:49:01.709Z,79.8
2019-02-12T13:50:13.919Z,79.4
2019-02-12T13:51:26.102Z,79.1
2019-02-12T13:52:38.300Z,79.5
2019-02-12T13:53:50.540Z,80
2019-02-12T13:55:02.822Z,79.5
2019-02-12T13:56:14.986Z,77.8
2019-02-12T13:57:27.242Z,78.2
2019-02-12T13:58:39.381Z,78.8
2019-02-12T13:59:51.479Z,79.4
2019-02-12T14:01:03.757Z,78.3
2019-02-12T14:02:15.847Z,77.2
2019-02-12T14:03:28.148Z,76.8
2019-02-12T14:04:40.274Z,78.5
2019-02-12T14:05:52.427Z,79
2019-02-12T14:07:04.628Z,79
2019-02-12T14:08:16.820Z,78.6
2019-02-12T14:09:29.134Z,76.7
2019-02-12T14:10:41.300Z,77
2019-02-12T14:11:53.395Z,77.8
2019-02-12T14:13:05.584Z,78
2019-02-12T14:14:17.797Z,79.2
2019-02-12T14:15:30.132Z,76
2019-02-12T14:16:44.340Z,78.1
2019-02-12T14:17:55.161Z,77.8
2019-02-12T14:19:06.556Z,78.2
2019-02-12T14:20:18.984Z,78
2019-02-12T14:21:31.048Z,76.5
2019-02-12T14:22:45.721Z,75.8
2019-02-12T14:23:55.409Z,77.8
2019-02-12T14:25:07.550Z,78.2
2019-02-12T14:26:19.713Z,77.7
2019-02-12T14:27:31.903Z,77.3
2019-02-12T14:28:44.103Z,77.8
2019-02-12T14:29:56.305Z,77
2019-02-12T14:31:08.495Z,77.4
2019-02-12T14:32:20.771Z,77.5
2019-02-12T14:33:32.997Z,77.6
2019-02-12T14:34:45.182Z,77.2
2019-02-12T14:35:57.408Z,78.7
2019-02-12T14:37:09.576Z,78.9
2019-02-12T14:38:21.786Z,78.4
2019-02-12T14:39:34.019Z,77
2019-02-12T14:40:46.115Z,76.8
2019-02-12T14:41:58.324Z,79.2
2019-02-12T14:43:10.459Z,77.3
2019-02-12T14:44:22.758Z,77.8
2019-02-12T14:45:34.912Z,78.1
2019-02-12T14:46:49.496Z,78.7
2019-02-12T14:47:59.289Z,77.3
2019-02-12T14:49:11.408Z,75.8
2019-02-12T14:50:23.676Z,77.2
2019-02-12T14:51:35.891Z,77.7
2019-02-12T14:52:47.984Z,78.1
2019-02-12T14:54:00.251Z,74.4
2019-02-12T14:55:12.370Z,75.2
2019-02-12T14:56:24.642Z,77.5
2019-02-12T14:57:36.860Z,79
2019-02-12T14:58:48.966Z,79
2019-02-12T15:00:01.289Z,77.7
2019-02-12T15:01:13.535Z,78.8
2019-02-12T15:02:25.691Z,78.3
2019-02-12T15:03:37.825Z,78.5
2019-02-12T15:04:50.003Z,77.9
2019-02-12T15:06:02.112Z,76.7
2019-02-12T15:07:14.381Z,78.3
2019-02-12T15:08:26.581Z,77.5
2019-02-12T15:09:38.687Z,78.9
2019-02-12T15:10:50.962Z,78.7
2019-02-12T15:12:03.213Z,79.3
2019-02-12T15:13:15.285Z,78.9
2019-02-12T15:14:27.550Z,78.9
2019-02-12T15:15:39.674Z,78.6
2019-02-12T15:16:51.917Z,77.7
2019-02-12T15:18:04.061Z,79.2
2019-02-12T15:19:16.374Z,78.3
2019-02-12T15:20:28.506Z,79.5
2019-02-12T15:21:40.808Z,79.9
2019-02-12T15:22:52.926Z,79.1
2019-02-12T15:24:05.109Z,79.1
2019-02-12T15:25:17.331Z,78.7
2019-02-12T15:26:29.413Z,79.6
2019-02-12T15:27:41.604Z,77.9
2019-02-12T15:28:53.793Z,77.3
2019-02-12T15:30:06.084Z,79
2019-02-12T15:31:18.321Z,79.5
2019-02-12T15:32:30.427Z,80.5
2019-02-12T15:33:42.747Z,79.2
2019-02-12T15:34:54.767Z,80.7
2019-02-12T15:36:06.953Z,80.4
2019-02-12T15:37:19.230Z,79.8
2019-02-12T15:38:31.443Z,80.5
2019-02-12T15:39:43.652Z,80.1
2019-02-12T15:40:55.732Z,79.6
2019-02-12T15:42:07.947Z,80.2
2019-02-12T15:43:20.135Z,78.3
2019-02-12T15:44:32.596Z,77.9
2019-02-12T15:45:44.615Z,80.1
2019-02-12T15:46:56.787Z,80.4
2019-02-12T15:48:08.970Z,80.8
2019-02-12T15:49:21.174Z,79.7
2019-02-12T15:50:33.292Z,81.1
2019-02-12T15:51:45.581Z,80.5
2019-02-12T15:52:57.769Z,81.3
2019-02-12T15:54:09.951Z,80.5
2019-02-12T15:55:22.052Z,80.7
2019-02-12T15:56:34.412Z,81.8
2019-02-12T15:57:46.541Z,80.9
2019-02-12T15:59:02.529Z,81
2019-02-12T16:00:10.871Z,79.4
2019-02-12T16:01:23.038Z,80.2
2019-02-12T16:02:35.304Z,80.3
2019-02-12T16:03:47.475Z,80.2
2019-02-12T16:04:59.690Z,80.7
2019-02-12T16:06:11.854Z,81.4
2019-02-12T16:07:24.010Z,81.7
2019-02-12T16:08:36.195Z,81.9